Bango, Nevada Weather observations

Data are for 10 minute period ending at time listed.
 Day   Time    Ave.   Ave.  Ave.  Vector   Max.   Stn.    Total    Solar   Ave.  
  of    of     Air    Rel.  Wind   Wind    Wind   Baro.  Precip.   Rad.    Soil  
Year   Day     Temp.  Hum.  Speed  Dir.    Gust   Pres.                    Temp. 
2017   (PST)    F      %     mph   deg.    mph     mb.     in.     W/m2     F    
--------------------------------------------------------------------------------- 
  19    6:30   35.0    75   15.0   220     19.4   864.4    0.00       0     1.2  
  19    6:40   35.1    74   16.1   226     20.3   864.2    0.00       0     1.2  
  19    6:50   35.4    72   14.4   232     19.4   864.4    0.00       0     1.2  
  19    7:00   34.5    75   11.4   242     14.9   864.5    0.00       0     1.2  
  19    7:10   34.6    75   12.2   246     17.6   864.8    0.00       2     1.2  
  19    7:20   33.3    78    9.7   234     14.1   865.1    0.00       4     1.2  
  19    7:30   32.6    80    9.8   210     16.7   865.3    0.00      10     1.2  
  19    7:40   33.7    78   15.7   239     20.3   865.4    0.00      27     1.2  
  19    7:50   35.2    76   17.9   236     25.7   865.8    0.00      96     1.1  
  19    8:00   35.2    82   20.7   228     31.0   865.7    0.00      62     1.2  
  19    8:10   34.7    87   22.3   238     29.2   865.6    0.00     122     1.2  
  19    8:20   35.0    87   22.9   244     29.2   865.6    0.00     208     1.1  
  19    8:30   35.2    86   21.8   241     28.4   865.7    0.00     166     1.2  
  19    8:40   34.8    87   19.9   227     27.5   865.9    0.00     118     1.1  
  19    8:50   34.9    87   15.2   233     20.3   866.2    0.00      87     1.2  
  19    9:00   34.4    87   10.6   220     14.9   866.2    0.00      75     1.1  
  19    9:10   34.7    84   14.8   241     18.5   866.2    0.00     107     1.1  
  19    9:20   35.0    84   11.6   236     14.9   866.3    0.00     182     1.1  
  19    9:30   36.5    79   11.7   220     15.8   866.4    0.00     390     1.1  
  19    9:40   37.0    78   13.0   209     18.5   866.5    0.00     402     1.2  
  19    9:50   37.4    76   15.7   223     19.4   866.6    0.00     431     1.2  
  19   10:00   37.5    77   15.4   232     20.3   866.3    0.00     456     1.2  
  19   10:10   37.6    76   14.7   228     21.2   866.0    0.00     464     1.2  
  19   10:20   38.6    72   10.3   250     15.8   866.4    0.00     398     1.2  
  19   10:30   38.9    70    9.0   246     12.3   866.5    0.00     392     1.2  
  19   10:40   39.5    70    8.1   203     11.4   866.5    0.00     520     1.2  
  19   10:50   39.9    69    7.9   187     10.5   866.3    0.00     581     1.2  
  19   11:00   40.4    64    9.4   222     13.2   866.2    0.00     527     1.2  
  19   11:10   40.2    63    9.5   219     12.3   866.2    0.00     369     1.2  
  19   11:20   39.9    64    9.7   234     14.1   866.2    0.00     385     1.2  
  19   11:30   40.2    64   10.5   242     14.9   866.2    0.00     287     1.2  
  19   11:40   39.9    65   11.3   232     15.8   866.0    0.00     259     1.2  
  19   11:50   39.9    62   12.2   216     14.9   866.0    0.00     265     1.2  
  19   12:00   40.0    65   11.4   230     16.7   866.0    0.00     248     1.3  
  19   12:10   40.1    63   15.8   246     25.7   865.8    0.00     216     1.3  
  19   12:20   38.9    69   20.7   247     27.5   865.6    0.00     164     1.3  
  19   12:30   38.5    69   17.2   251     22.1   865.6    0.00     211     1.3  
  19   12:40   38.8    69   15.2   247     22.1   865.6    0.00     203     1.4  
  19   12:50   39.0    70   13.3   245     21.2   865.5    0.00     357     1.4  
  19   13:00   40.2    67   14.8   237     19.4   865.4    0.00     633     1.4  
  19   13:10   40.1    67   15.3   240     18.5   865.3    0.00     375     1.5  
  19   13:20   39.5    69   14.7   242     17.6   865.2    0.00     218     1.5  
  19   13:30   39.2    69   15.9   236     20.3   865.2    0.00     238     1.5  
  19   13:40   39.0    69   19.3   224     25.7   865.0    0.00     230     1.6  
  19   13:50   38.8    68   23.5   215     28.4   864.6    0.00     259     1.6  
  19   14:00   38.9    68   20.6   210     25.7   864.6    0.00     221     1.6  
  19   14:10   39.2    68   14.4   217     22.1   864.7    0.00     202     1.7  
  19   14:20   39.6    67   12.4   225     19.4   864.6    0.00     193     1.7  
  19   14:30   39.9    66    9.1   224     15.8   864.7    0.00     227     1.7  
  19   14:40   41.1    63    8.1   207     12.3   864.7    0.00     431     1.8  
  19   14:50   41.8    61    9.9   198     14.9   864.7    0.00     406     1.8  
  19   15:00   42.0    60    8.7   191     14.1   864.7    0.00     354     1.9  
  19   15:10   42.0    59   10.6   193     15.8   864.6    0.00     319     1.9  
  19   15:20   41.7    58   12.2   216     15.8   864.7    0.00     282     2.0  
  19   15:30   40.6    60   12.8   232     17.6   864.8    0.00     142     2.0  
  19   15:40   41.2    59   12.7   226     16.7   864.8    0.00     270     2.0  
  19   15:50   41.2    61    9.5   216     14.1   864.8    0.00     234     2.1  
  19   16:00   41.3    58   11.9   213     15.8   864.8    0.00     167     2.1  
  19   16:10   40.8    58   12.8   224     16.7   864.6    0.00     149     2.2  
  19   16:20   40.8    58   13.0   232     16.7   864.4    0.00     110     2.2  
  19   16:30   40.4    59   12.9   237     17.6   864.4    0.00      76     2.3  
  19   16:40   39.3    63   11.8   239     14.9   864.4    0.00      18     2.3  
  19   16:50   38.3    65   11.8   237     14.1   864.4    0.00      10     2.4  
  19   17:00   37.6    67   10.9   233     14.1   864.4    0.00       6     2.4  
  19   17:10   36.4    71    9.3   229     11.4   864.5    0.00       2     2.4  
  19   17:20   36.1    72   11.1   236     13.2   864.5    0.00       1     2.5  
  19   17:30   36.2    72   11.6   243     13.2   864.5    0.00       0     2.5  
  19   17:40   36.4    70   11.4   245     14.1   864.4    0.00       0     2.5  
  19   17:50   36.3    70   10.6   245     13.2   864.5    0.00       0     2.5  
  19   18:00   36.3    70   11.1   248     13.2   864.7    0.00       0     2.5  
  19   18:10   35.5    73    9.1   237     10.5   864.8    0.00       0     2.5  
  19   18:20   34.7    77    6.5   192      8.7   864.8    0.00       0     2.5  
  19   18:30   35.9    72    8.9   189     12.3   864.7    0.00       0     2.5  
  19   18:40   35.8    72    8.3   209     11.4   864.6    0.00       0     2.5  
  19   18:50   34.5    77   10.2   186     13.2   864.5    0.00       0     2.5  
  19   19:00   34.4    77   10.1   197     11.4   864.3    0.00       0     2.5  
  19   19:10   33.8    79   10.5   213     11.4   864.3    0.00       0     2.5  
  19   19:20   33.8    78    8.0   220     10.5   864.1    0.00       0     2.5  
  19   19:30   33.0    81    5.7   214      6.9   864.0    0.00       0     2.4  
  19   19:40   32.5    82    6.4   187      7.8   863.9    0.00       0     2.4  
  19   19:50   31.9    85    5.3   159      7.8   863.8    0.00       0     2.4  
  19   20:00   31.5    86    6.6   154      8.7   863.7    0.00       0     2.4  
  19   20:10   33.0    82    5.8   173      7.8   863.6    0.00       0     2.3  
  19   20:20   33.5    80    4.6   181      6.0   863.5    0.00       0     2.3  
  19   20:30   31.8    84    5.3   220      6.9   863.4    0.00       0     2.3  
  19   20:40   30.7    88    7.3   244      7.8   863.3    0.00       0     2.2  
  19   20:50   31.2    89    7.9   256      8.7   863.2    0.00       0     2.2  
  19   21:00   31.7    86    7.7   252      8.7   863.2    0.00       0     2.2  
  19   21:10   32.0    86    7.5   253      8.7   863.1    0.00       0     2.2  
  19   21:20   32.3    85    7.3   254      8.7   863.1    0.00       0     2.1  
  19   21:30   32.5    84    6.8   248      7.8   863.1    0.00       0     2.1  
  19   21:40   31.7    86    6.1   242      8.7   863.0    0.00       0     2.1  
  19   21:50   31.6    87    5.1   243      6.9   862.8    0.00       0     2.1  
  19   22:00   31.5    88    4.2   224      5.1   862.7    0.00       0     2.0  
  19   22:10   31.7    88    4.8   192      6.0   862.5    0.00       0     2.0  
  19   22:20   31.5    90    5.3   185      7.8   862.5    0.00       0     2.0  
  19   22:30   31.6    90    7.1   195      8.7   862.4    0.00       0     2.0  
  19   22:40   31.5    90    6.8   224      7.8   862.3    0.00       0     1.9  
  19   22:50   31.3    90    4.3   233      6.0   862.2    0.00       0     1.9  
  19   23:00   31.2    90    4.5   229      6.0   862.1    0.00       0     1.9  
  19   23:10   31.3    89    5.3   201      8.7   862.0    0.00       0     1.9  
  19   23:20   31.2    90    4.2   127      6.0   861.8    0.00       0     1.9  
  19   23:30   31.5    90    5.2   168      6.0   861.8    0.00       0     1.9  
  19   23:40   32.0    88    4.9   196      7.8   861.6    0.00       0     1.8  
  19   23:50   33.6    81    4.7   219      6.0   861.3    0.00       0     1.8  
  20    0:00   32.3    87    3.3   220      5.1   861.0    0.00       0     1.8  
  20    0:10   32.1    88    3.3   240      5.1   860.9    0.00       0     1.8  
  20    0:20   32.5    86    2.7   286      4.2   860.6    0.00       0     1.8  
  20    0:30   33.5    81    1.5   312      2.4   860.2    0.00       0     1.7  
  20    0:40   34.3    76    2.3   274      6.0   860.0    0.00       0     1.7  
  20    0:50   32.6    83    2.9    50      6.9   859.7    0.00       0     1.7  
  20    1:00   32.0    86    2.4    56      4.2   859.6    0.00       0     1.7  
  20    1:10   31.5    88    1.6    13      2.4   859.5    0.00       0     1.7  
  20    1:20   31.6    88    1.4    12      2.4   859.5    0.00       0     1.7  
  20    1:30   31.6    88    1.0   244      2.4   859.3    0.00       0     1.7  
  20    1:40   31.8    88    1.3   227      3.3   859.3    0.00       0     1.7  
  20    1:50   32.1    85    0.9   197      2.4   859.0    0.00       0     1.6  
  20    2:00   32.0    86    1.9    39      4.2   858.8    0.00       0     1.6  
  20    2:10   32.5    82    2.6   336      4.2   858.6    0.00       0     1.6  
  20    2:20   33.0    80    2.3     4      5.1   858.3    0.00       0     1.6  
  20    2:30   31.5    85    6.7    35      7.8   858.2    0.00       0     1.6  
  20    2:40   31.0    88    4.6    31      6.9   857.8    0.00       0     1.6  
  20    2:50   30.5    89    3.8   346      5.1   857.8    0.00       0     1.6  
  20    3:00   30.7    89    4.4     3      5.1   857.8    0.00       0     1.6  
  20    3:10   31.2    88    5.7     8      8.7   857.6    0.00       0     1.6  
  20    3:20   30.7    90    7.1   336      8.7   857.3    0.00       0     1.5  
  20    3:30   30.9    90    5.9   335      6.9   857.1    0.00       0     1.5  
  20    3:40   31.0    89    5.6   336      6.9   857.0    0.00       0     1.5  
  20    3:50   31.2    89    4.0   326      5.1   857.0    0.00       0     1.5  
  20    4:00   31.9    86    3.3    14      5.1   856.6    0.00       0     1.5  
  20    4:10   31.9    86    3.9    20      6.9   856.4    0.00       0     1.5  
  20    4:20   31.5    88    5.7   359      6.9   856.2    0.00       0     1.5  
  20    4:30   31.3    88    6.0     7      7.8   855.7    0.00       0     1.5  
  20    4:40   31.0    88    6.1    12      7.8   855.5    0.00       0     1.5  
  20    4:50   30.4    89    6.8   354      8.7   855.4    0.00       0     1.5  
  20    5:00   30.5    88    5.9   328      7.8   855.4    0.00       0     1.5  
  20    5:10   31.4    85    5.2     9      6.9   855.3    0.00       0     1.5  
  20    5:20   31.0    87    5.4   344      6.9   855.1    0.00       0     1.4  
  20    5:30   30.7    90    5.2   348      6.9   855.1    0.00       0     1.4  
  20    5:40   31.0    90    4.5   345      6.0   854.9    0.00       0     1.4  
  20    5:50   31.3    89    4.9    10      6.9   854.3    0.00       0     1.4  
  20    6:00   31.3    89    5.5   353      6.9   854.0    0.00       0     1.4  
  20    6:10   31.3    90    5.6   334      6.9   854.1    0.00       0     1.4  
  20    6:20   31.2    90    4.6   346      6.9   853.9    0.00       0     1.4  

Return to Garden Spring, Nevada graphs page.


Western Regional Climate Center,wrcc@dri.edu